createdAt,value
2018-09-10T00:02:15.079Z,26.00
2018-09-10T00:04:46.810Z,30.60
2018-09-10T00:07:18.747Z,23.00
2018-09-10T00:09:50.755Z,27.00
2018-09-10T00:12:22.163Z,29.40
2018-09-10T00:14:54.097Z,29.20
2018-09-10T00:17:25.735Z,26.00
2018-09-10T00:19:57.723Z,28.20
2018-09-10T00:22:29.220Z,26.00
2018-09-10T00:25:01.471Z,26.80
2018-09-10T00:27:33.177Z,27.60
2018-09-10T00:30:05.152Z,22.40
2018-09-10T00:32:36.806Z,28.80
2018-09-10T00:35:08.551Z,29.20
2018-09-10T00:37:40.404Z,26.20
2018-09-10T00:40:12.282Z,30.40
2018-09-10T00:42:43.890Z,24.80
2018-09-10T00:45:15.727Z,29.00
2018-09-10T00:47:47.347Z,32.40
2018-09-10T00:50:19.026Z,26.00
2018-09-10T00:52:50.786Z,28.20
2018-09-10T00:55:22.628Z,29.00
2018-09-10T00:57:54.271Z,28.80
2018-09-10T01:00:26.043Z,24.80
2018-09-10T01:02:58.574Z,33.40
2018-09-10T01:05:30.481Z,28.60
2018-09-10T01:08:01.974Z,27.40
2018-09-10T01:10:33.845Z,29.00
2018-09-10T01:13:05.584Z,29.80
2018-09-10T01:15:37.600Z,25.00
2018-09-10T01:18:09.509Z,30.60
2018-09-10T01:20:41.458Z,30.60
2018-09-10T01:23:13.248Z,36.60
2018-09-10T01:25:45.448Z,32.40
2018-09-10T01:28:17.092Z,32.00
2018-09-10T01:30:48.780Z,36.60
2018-09-10T01:34:49.220Z,31.20
2018-09-10T01:37:21.237Z,32.40
2018-09-10T01:39:52.838Z,33.20
2018-09-10T01:42:24.563Z,32.80
2018-09-10T01:44:56.117Z,37.60
2018-09-10T01:47:28.020Z,38.60
2018-09-10T01:49:59.713Z,37.00
2018-09-10T01:52:31.649Z,33.80
2018-09-10T01:55:03.178Z,34.60
2018-09-10T01:57:35.021Z,34.80
2018-09-10T02:00:06.888Z,50.20
2018-09-10T02:02:38.614Z,49.60
2018-09-10T02:05:10.348Z,52.40
2018-09-10T02:07:42.193Z,47.40
2018-09-10T02:10:13.863Z,50.00
2018-09-10T02:12:45.679Z,53.60
2018-09-10T02:15:17.100Z,53.80
2018-09-10T02:17:48.860Z,54.60
2018-09-10T02:20:21.586Z,48.60
2018-09-10T02:22:53.499Z,61.00
2018-09-10T02:25:25.132Z,59.20
2018-09-10T02:27:56.962Z,61.40
2018-09-10T02:30:28.659Z,58.60
2018-09-10T02:33:00.444Z,57.60
2018-09-10T02:35:32.044Z,60.20
2018-09-10T02:38:04.172Z,56.00
2018-09-10T02:40:35.821Z,53.40
2018-09-10T02:43:07.667Z,58.60
2018-09-10T02:45:39.334Z,60.20
2018-09-10T02:48:10.950Z,51.40
2018-09-10T02:50:42.693Z,56.60
2018-09-10T02:53:14.480Z,59.00
2018-09-10T02:55:45.980Z,60.60
2018-09-10T02:58:18.143Z,56.60
2018-09-10T03:00:49.994Z,51.40
2018-09-10T03:03:22.125Z,57.40
2018-09-10T03:05:54.756Z,54.00
2018-09-10T03:08:26.759Z,52.80
2018-09-10T03:10:58.484Z,55.80
2018-09-10T03:13:30.271Z,55.60
2018-09-10T03:16:01.964Z,55.80
2018-09-10T03:18:33.647Z,56.40
2018-09-10T03:21:06.151Z,61.00
2018-09-10T03:23:37.956Z,56.00
2018-09-10T03:26:10.492Z,53.40
2018-09-10T03:28:42.347Z,61.00
2018-09-10T03:31:13.732Z,57.60
2018-09-10T03:33:45.225Z,66.20
2018-09-10T03:36:16.999Z,58.00
2018-09-10T03:38:48.618Z,56.40
2018-09-10T03:41:20.285Z,57.20
2018-09-10T03:43:52.073Z,58.00
2018-09-10T03:46:23.786Z,60.00
2018-09-10T03:48:55.630Z,64.80
2018-09-10T03:51:27.309Z,59.20
2018-09-10T03:53:59.191Z,56.20
2018-09-10T03:56:30.907Z,59.20
2018-09-10T03:59:02.659Z,58.20
2018-09-10T04:01:34.580Z,64.80
2018-09-10T04:04:06.366Z,60.60
2018-09-10T04:06:38.127Z,51.60
2018-09-10T04:09:10.649Z,58.20
2018-09-10T04:11:42.343Z,58.00
2018-09-10T04:14:14.439Z,56.40
2018-09-10T04:16:45.877Z,59.40
2018-09-10T04:19:17.920Z,58.00
2018-09-10T04:21:49.734Z,67.60
2018-09-10T04:24:21.555Z,59.40
2018-09-10T04:26:53.187Z,60.20
2018-09-10T04:29:25.017Z,59.80
2018-09-10T04:31:56.661Z,57.40
2018-09-10T04:34:28.489Z,66.40
2018-09-10T04:37:00.155Z,59.60
2018-09-10T04:39:32.008Z,54.20
2018-09-10T04:42:05.569Z,65.40
2018-09-10T04:44:37.428Z,61.00
2018-09-10T04:47:10.001Z,58.00
2018-09-10T04:49:41.896Z,60.20
2018-09-10T04:52:13.387Z,57.40
2018-09-10T04:54:45.402Z,59.20
2018-09-10T04:57:17.092Z,59.60
2018-09-10T04:59:48.965Z,57.00
2018-09-10T05:02:20.793Z,58.40
2018-09-10T05:04:52.363Z,53.20
2018-09-10T05:07:24.090Z,61.20
2018-09-10T05:09:55.838Z,56.20
2018-09-10T05:12:27.654Z,61.40
2018-09-10T05:14:59.533Z,62.60
2018-09-10T05:17:31.171Z,58.00
2018-09-10T05:20:03.353Z,59.40
2018-09-10T05:22:35.183Z,59.60
2018-09-10T05:25:07.048Z,59.00
2018-09-10T05:27:38.634Z,61.40
2018-09-10T05:30:10.403Z,58.80
2018-09-10T05:32:41.969Z,59.80
2018-09-10T05:35:14.467Z,54.00
2018-09-10T05:37:46.254Z,60.20
2018-09-10T05:40:18.162Z,60.80
2018-09-10T05:42:50.086Z,62.80
2018-09-10T05:45:22.079Z,58.40
2018-09-10T05:47:53.712Z,56.40
2018-09-10T05:50:25.890Z,60.40
2018-09-10T05:52:57.879Z,64.40
2018-09-10T05:55:29.759Z,66.20
2018-09-10T05:58:01.653Z,65.40
2018-09-10T06:00:35.410Z,62.00
2018-09-10T06:03:07.284Z,63.40
2018-09-10T06:05:39.729Z,62.20
2018-09-10T06:08:12.230Z,63.20
2018-09-10T06:10:44.227Z,59.40
2018-09-10T06:13:15.986Z,58.60
2018-09-10T06:15:48.054Z,55.60
2018-09-10T06:18:20.050Z,61.80
2018-09-10T06:20:51.809Z,65.60
2018-09-10T06:23:23.741Z,66.40
2018-09-10T06:25:55.355Z,60.20
2018-09-10T06:28:27.440Z,60.60
2018-09-10T06:30:59.317Z,66.20
2018-09-10T06:33:32.274Z,62.60
2018-09-10T06:36:04.030Z,63.00
2018-09-10T06:38:44.354Z,59.00
2018-09-10T06:44:32.268Z,52.40
2018-09-10T06:47:20.188Z,60.00
2018-09-10T06:50:08.532Z,63.20
2018-09-10T06:52:45.764Z,62.00
2018-09-10T06:55:20.491Z,57.40
2018-09-10T06:57:57.378Z,65.80
2018-09-10T07:00:41.666Z,64.20
2018-09-10T07:03:17.388Z,65.00
2018-09-10T07:06:01.649Z,63.00
2018-09-10T07:08:52.272Z,61.60
2018-09-10T07:11:36.529Z,60.80
2018-09-10T07:14:13.255Z,59.00
2018-09-10T07:17:07.513Z,62.20
2018-09-10T07:19:49.824Z,62.40
2018-09-10T07:22:29.342Z,66.00
2018-09-10T07:25:27.094Z,67.80
2018-09-10T07:27:58.973Z,65.80
2018-09-10T07:30:30.679Z,64.20
2018-09-10T07:33:02.637Z,65.20
2018-09-10T07:35:34.759Z,64.80
2018-09-10T07:38:06.778Z,64.80
2018-09-10T07:40:38.550Z,66.60
2018-09-10T07:43:10.297Z,62.40
2018-09-10T07:45:42.345Z,64.80
2018-09-10T07:48:14.004Z,64.80
2018-09-10T07:50:45.989Z,59.40
2018-09-10T07:53:17.834Z,62.60
2018-09-10T07:55:51.218Z,62.00
2018-09-10T07:58:23.741Z,64.40
2018-09-10T08:00:57.391Z,62.60
2018-09-10T08:03:29.393Z,63.20
2018-09-10T08:06:02.177Z,57.00
2018-09-10T08:08:34.756Z,60.60
2018-09-10T08:11:07.796Z,58.60
2018-09-10T08:13:41.011Z,59.80
2018-09-10T08:16:13.142Z,65.80
2018-09-10T08:18:44.942Z,57.80
2018-09-10T08:21:16.790Z,56.00
2018-09-10T08:23:49.099Z,60.60
2018-09-10T08:26:20.848Z,59.80
2018-09-10T08:28:52.718Z,62.20
2018-09-10T08:31:24.904Z,54.80
2018-09-10T08:33:57.052Z,61.20
2018-09-10T08:36:32.146Z,61.00
2018-09-10T08:39:04.783Z,59.00
2018-09-10T08:41:36.153Z,53.00
2018-09-10T08:44:08.618Z,55.20
2018-09-10T08:46:40.817Z,58.40
2018-09-10T08:49:12.860Z,60.60
2018-09-10T08:51:44.725Z,61.40
2018-09-10T08:54:17.625Z,61.00
2018-09-10T08:56:50.852Z,63.40
2018-09-10T08:59:24.475Z,60.40
2018-09-10T09:01:56.663Z,59.40
2018-09-10T09:04:28.696Z,52.40
2018-09-10T09:07:00.821Z,57.20
2018-09-10T09:09:32.495Z,51.20
2018-09-10T09:12:04.483Z,50.80
2018-09-10T09:14:36.243Z,56.20
2018-09-10T09:17:08.326Z,53.80
2018-09-10T09:19:40.184Z,51.20
2018-09-10T09:22:12.366Z,43.60
2018-09-10T09:24:44.653Z,50.80
2018-09-10T09:27:17.979Z,51.00
2018-09-10T09:29:51.149Z,53.40
2018-09-10T09:32:23.957Z,55.80
2018-09-10T09:34:56.982Z,53.00
2018-09-10T09:37:33.583Z,47.80
2018-09-10T09:40:10.366Z,54.20
2018-09-10T09:42:48.083Z,52.60
2018-09-10T09:45:25.716Z,53.00
2018-09-10T09:47:58.727Z,55.60
2018-09-10T09:50:31.180Z,53.00
2018-09-10T09:53:03.173Z,55.60
2018-09-10T09:55:35.270Z,55.60
2018-09-10T09:58:07.254Z,54.20
2018-09-10T10:00:43.853Z,52.80
2018-09-10T10:03:19.751Z,53.80
2018-09-10T10:05:52.034Z,52.40
2018-09-10T10:08:23.904Z,50.00
2018-09-10T10:10:55.767Z,60.20
2018-09-10T10:13:27.409Z,56.20
2018-09-10T10:15:59.271Z,58.20
2018-09-10T10:18:31.083Z,59.00
2018-09-10T10:21:03.214Z,56.60
2018-09-10T10:23:35.017Z,44.40
2018-09-10T10:26:07.787Z,57.80
2018-09-10T10:28:39.809Z,49.00
2018-09-10T10:31:12.778Z,52.60
2018-09-10T10:33:52.342Z,51.00
2018-09-10T10:36:24.693Z,48.00
2018-09-10T10:38:56.233Z,46.40
2018-09-10T10:41:28.152Z,54.00
2018-09-10T10:44:00.627Z,51.40
2018-09-10T10:46:33.206Z,47.40
2018-09-10T10:49:05.292Z,40.60
2018-09-10T10:51:36.974Z,48.40
2018-09-10T10:54:08.841Z,43.00
2018-09-10T10:56:41.617Z,46.40
2018-09-10T10:59:14.698Z,48.40
2018-09-10T11:01:47.322Z,46.20
2018-09-10T11:04:18.901Z,52.00
2018-09-10T11:06:51.199Z,49.40
2018-09-10T11:09:23.158Z,55.00
2018-09-10T11:11:55.237Z,49.80
2018-09-10T11:14:27.360Z,51.20
2018-09-10T11:16:59.637Z,56.20
2018-09-10T11:19:31.482Z,54.80
2018-09-10T11:22:03.728Z,49.60
2018-09-10T11:24:36.888Z,49.20
2018-09-10T11:27:08.733Z,57.00
2018-09-10T11:29:40.568Z,53.20
2018-09-10T11:32:12.826Z,53.80
2018-09-10T11:34:44.972Z,54.00
2018-09-10T11:37:16.615Z,54.00
2018-09-10T11:39:48.478Z,51.20
2018-09-10T11:42:20.519Z,51.40
2018-09-10T11:44:52.238Z,50.00
2018-09-10T11:47:24.138Z,50.00
2018-09-10T11:49:55.871Z,50.60
2018-09-10T11:52:27.961Z,42.40
2018-09-10T11:54:59.891Z,46.60
2018-09-10T11:57:32.076Z,43.00
2018-09-10T12:00:03.823Z,51.80
2018-09-10T12:02:35.690Z,54.00
2018-09-10T12:05:07.674Z,53.20
2018-09-10T12:07:39.721Z,47.00
2018-09-10T12:10:11.425Z,56.00
2018-09-10T12:12:43.400Z,53.00
2018-09-10T12:15:15.329Z,55.80
2018-09-10T12:17:47.052Z,55.00
2018-09-10T12:20:18.842Z,53.20
2018-09-10T12:22:50.678Z,52.80
2018-09-10T12:25:22.849Z,57.60
2018-09-10T12:27:54.813Z,54.00
2018-09-10T12:30:26.650Z,55.60
2018-09-10T12:32:58.510Z,50.20
2018-09-10T12:35:30.411Z,56.60
2018-09-10T12:38:02.432Z,53.00
2018-09-10T12:40:34.635Z,59.60
2018-09-10T12:43:06.395Z,53.40
2018-09-10T12:45:38.642Z,53.00
2018-09-10T12:48:11.047Z,49.80
2018-09-10T12:50:43.037Z,57.20
2018-09-10T12:53:15.213Z,59.60
2018-09-10T12:55:46.895Z,54.80
2018-09-10T12:58:18.683Z,63.60
2018-09-10T13:00:52.222Z,67.80
2018-09-10T13:03:24.647Z,64.80
2018-09-10T13:05:56.403Z,61.20
2018-09-10T13:08:28.255Z,58.60
2018-09-10T13:10:59.754Z,57.60
2018-09-10T13:13:31.883Z,55.60
2018-09-10T13:16:04.618Z,52.40
2018-09-10T13:18:36.630Z,63.60
2018-09-10T13:21:08.281Z,63.40
2018-09-10T13:23:41.197Z,55.80
2018-09-10T13:26:14.134Z,56.20
2018-09-10T13:28:47.001Z,64.20
2018-09-10T13:31:18.806Z,59.40
2018-09-10T13:33:50.733Z,58.40
2018-09-10T13:36:23.126Z,65.20
2018-09-10T13:38:55.204Z,68.80
2018-09-10T13:41:27.942Z,68.40
2018-09-10T13:43:59.762Z,66.40
2018-09-10T13:46:31.960Z,61.40
2018-09-10T13:49:04.378Z,65.80
2018-09-10T13:51:36.143Z,65.40
2018-09-10T13:54:08.198Z,61.40
2018-09-10T13:56:41.203Z,66.40
2018-09-10T13:59:13.081Z,64.60
2018-09-10T14:01:45.294Z,59.00
2018-09-10T14:04:17.792Z,66.80
2018-09-10T14:06:49.657Z,64.20
2018-09-10T14:09:22.482Z,65.20
2018-09-10T14:11:54.558Z,64.00
2018-09-10T14:14:26.484Z,62.40
2018-09-10T14:16:58.504Z,63.00
2018-09-10T14:19:30.529Z,62.00
2018-09-10T14:22:02.744Z,63.00
2018-09-10T14:24:34.840Z,65.40
2018-09-10T14:27:06.621Z,67.00
2018-09-10T14:29:39.097Z,65.20
2018-09-10T14:32:11.191Z,67.60
2018-09-10T14:34:43.059Z,66.20
2018-09-10T14:37:15.226Z,71.20
2018-09-10T14:39:47.164Z,66.80
2018-09-10T14:42:19.075Z,64.20
2018-09-10T14:44:50.647Z,67.80
2018-09-10T14:47:22.469Z,66.00
2018-09-10T14:49:54.837Z,66.00
2018-09-10T14:52:26.606Z,66.60
2018-09-10T14:55:01.179Z,67.20
2018-09-10T14:57:33.120Z,72.60
2018-09-10T15:00:05.054Z,61.20
2018-09-10T15:02:36.624Z,64.80
2018-09-10T15:05:08.590Z,65.80
2018-09-10T15:07:40.178Z,67.00
2018-09-10T15:10:12.134Z,66.20
2018-09-10T15:12:43.910Z,64.40
2018-09-10T15:15:16.012Z,60.40
2018-09-10T15:17:47.925Z,64.60
2018-09-10T15:20:19.917Z,63.40
2018-09-10T15:22:51.926Z,65.40
2018-09-10T15:25:23.667Z,67.80
2018-09-10T15:27:55.431Z,66.60
2018-09-10T15:30:27.146Z,56.80
2018-09-10T15:32:58.895Z,73.20
2018-09-10T15:35:30.746Z,66.20
2018-09-10T15:38:02.578Z,62.60
2018-09-10T15:40:34.533Z,65.80
2018-09-10T15:43:06.367Z,62.00
2018-09-10T15:45:38.147Z,62.40
2018-09-10T15:48:09.897Z,63.60
2018-09-10T15:50:42.147Z,58.60
2018-09-10T15:53:14.018Z,53.60
2018-09-10T15:55:45.765Z,58.40
2018-09-10T15:58:17.514Z,53.40
2018-09-10T16:00:49.036Z,59.80
2018-09-10T16:03:21.881Z,54.60
2018-09-10T16:05:53.733Z,60.00
2018-09-10T16:08:25.420Z,59.60
2018-09-10T16:10:57.366Z,53.80
2018-09-10T16:13:29.052Z,53.40
2018-09-10T16:16:00.839Z,55.60
2018-09-10T16:18:32.479Z,57.00
2018-09-10T16:21:04.447Z,53.00
2018-09-10T16:23:36.337Z,53.20
2018-09-10T16:26:08.464Z,55.00
2018-09-10T16:28:40.359Z,53.20
2018-09-10T16:31:13.371Z,53.00
2018-09-10T16:33:45.264Z,54.20
2018-09-10T16:36:17.985Z,52.60
2018-09-10T16:38:50.942Z,55.40
2018-09-10T16:41:22.900Z,54.40
2018-09-10T16:43:54.930Z,54.60
2018-09-10T16:46:26.942Z,54.80
2018-09-10T16:48:58.975Z,51.60
2018-09-10T16:51:31.260Z,46.00
2018-09-10T16:54:03.790Z,50.00
2018-09-10T16:56:35.830Z,48.40
2018-09-10T16:59:07.788Z,48.60
2018-09-10T17:01:40.852Z,53.00
2018-09-10T17:04:12.696Z,46.00
2018-09-10T17:06:48.789Z,50.60
2018-09-10T17:09:21.207Z,47.40
2018-09-10T17:11:53.691Z,44.40
2018-09-10T17:14:25.986Z,51.60
2018-09-10T17:16:58.121Z,48.00
2018-09-10T17:19:29.851Z,47.60
2018-09-10T17:22:01.878Z,49.20
2018-09-10T17:24:33.927Z,48.20
2018-09-10T17:27:05.935Z,48.80
2018-09-10T17:29:37.837Z,47.60
2018-09-10T17:32:09.851Z,43.00
2018-09-10T17:34:42.162Z,49.00
2018-09-10T17:37:14.082Z,46.00
2018-09-10T17:39:46.734Z,45.20
2018-09-10T17:42:18.660Z,45.20
2018-09-10T17:44:51.356Z,40.80
2018-09-10T17:47:23.628Z,42.00
2018-09-10T17:49:55.934Z,43.20
2018-09-10T17:52:27.795Z,41.20
2018-09-10T17:54:59.605Z,37.00
2018-09-10T17:57:32.830Z,40.40
2018-09-10T18:00:04.589Z,43.80
2018-09-10T18:02:36.443Z,34.80
2018-09-10T18:05:08.173Z,39.40
2018-09-10T18:07:40.144Z,41.00
2018-09-10T18:10:12.202Z,43.60
2018-09-10T18:12:43.846Z,39.60
2018-09-10T18:15:15.678Z,43.00
2018-09-10T18:17:47.804Z,36.00
2018-09-10T18:20:19.434Z,38.00
2018-09-10T18:22:51.495Z,38.00
2018-09-10T18:25:23.475Z,38.60
2018-09-10T18:27:55.457Z,38.40
2018-09-10T18:30:30.612Z,34.60
2018-09-10T18:33:03.150Z,46.40
2018-09-10T18:35:35.007Z,36.60
2018-09-10T18:38:06.945Z,40.60
2018-09-10T18:40:38.873Z,42.00
2018-09-10T18:43:10.957Z,39.40
2018-09-10T18:45:43.660Z,37.20
2018-09-10T18:48:15.874Z,44.00
2018-09-10T18:50:48.838Z,39.40
2018-09-10T18:53:21.908Z,40.60
2018-09-10T18:55:53.594Z,40.40
2018-09-10T18:58:25.818Z,37.80
2018-09-10T19:00:57.961Z,42.80
2018-09-10T19:03:29.892Z,42.40
2018-09-10T19:06:01.685Z,39.20
2018-09-10T19:08:33.599Z,41.60
2018-09-10T19:11:05.495Z,38.00
2018-09-10T19:13:37.227Z,36.80
2018-09-10T19:16:09.198Z,36.60
2018-09-10T19:18:42.237Z,35.80
2018-09-10T19:21:13.980Z,37.80
2018-09-10T19:23:45.820Z,30.80
2018-09-10T19:26:17.569Z,37.20
2018-09-10T19:28:49.515Z,39.20
2018-09-10T19:31:21.401Z,35.60
2018-09-10T19:33:53.309Z,32.20
2018-09-10T19:36:25.184Z,44.60
2018-09-10T19:38:57.124Z,36.60
2018-09-10T19:41:29.060Z,38.00
2018-09-10T19:44:01.360Z,35.00
2018-09-10T19:46:33.273Z,31.20
2018-09-10T19:49:06.356Z,37.80
2018-09-10T19:51:38.035Z,35.00
2018-09-10T19:54:10.075Z,38.40
2018-09-10T19:56:41.992Z,34.60
2018-09-10T19:59:13.818Z,36.20
2018-09-10T20:01:46.372Z,35.00
2018-09-10T20:04:18.212Z,29.40
2018-09-10T20:06:50.246Z,34.00
2018-09-10T20:09:21.845Z,34.80
2018-09-10T20:11:53.606Z,30.40
2018-09-10T20:14:25.401Z,35.20
2018-09-10T20:16:57.099Z,36.20
2018-09-10T20:19:29.005Z,36.80
2018-09-10T20:22:00.787Z,25.00
2018-09-10T20:24:32.430Z,36.00
2018-09-10T20:27:04.130Z,36.40
2018-09-10T20:29:35.798Z,32.60
2018-09-10T20:32:07.835Z,31.60
2018-09-10T20:34:39.694Z,39.60
2018-09-10T20:37:11.341Z,31.40
2018-09-10T20:39:43.291Z,31.80
2018-09-10T20:42:15.314Z,29.80
2018-09-10T20:44:47.079Z,34.20
2018-09-10T20:47:18.845Z,32.00
2018-09-10T20:49:51.057Z,30.40
2018-09-10T20:52:22.757Z,36.20
2018-09-10T20:54:54.786Z,31.60
2018-09-10T20:57:26.939Z,35.40
2018-09-10T20:59:58.924Z,40.00
2018-09-10T21:02:30.813Z,36.40
2018-09-10T21:05:04.128Z,32.00
2018-09-10T21:07:36.065Z,35.80
2018-09-10T21:10:08.170Z,35.40
2018-09-10T21:12:39.963Z,32.20
2018-09-10T21:15:12.079Z,33.80
2018-09-10T21:17:43.936Z,29.40
2018-09-10T21:20:15.732Z,33.60
2018-09-10T21:22:47.764Z,34.20
2018-09-10T21:25:19.465Z,31.20
2018-09-10T21:27:51.188Z,35.00
2018-09-10T21:30:23.155Z,25.80
2018-09-10T21:32:54.964Z,33.00
2018-09-10T21:35:26.566Z,31.40
2018-09-10T21:37:58.682Z,38.00
2018-09-10T21:40:30.344Z,34.60
2018-09-10T21:43:02.148Z,37.60
2018-09-10T21:45:34.202Z,32.40
2018-09-10T21:48:05.794Z,28.80
2018-09-10T21:50:38.489Z,35.60
2018-09-10T21:53:10.002Z,35.00
2018-09-10T21:55:41.957Z,29.60
2018-09-10T21:58:13.761Z,30.60
2018-09-10T22:00:50.932Z,30.80
2018-09-10T22:03:22.624Z,32.80
2018-09-10T22:05:54.991Z,31.20
2018-09-10T22:08:26.830Z,36.00
2018-09-10T22:10:58.783Z,37.00
2018-09-10T22:13:30.684Z,34.60
2018-09-10T22:16:02.478Z,35.20
2018-09-10T22:18:34.267Z,36.20
2018-09-10T22:21:06.229Z,34.80
2018-09-10T22:23:38.095Z,33.60
2018-09-10T22:26:09.832Z,34.20
2018-09-10T22:28:41.518Z,38.60
2018-09-10T22:31:13.404Z,33.20
2018-09-10T22:33:45.465Z,34.40
2018-09-10T22:36:17.399Z,34.20
2018-09-10T22:38:49.050Z,34.20
2018-09-10T22:41:20.838Z,30.00
2018-09-10T22:43:52.352Z,36.80
2018-09-10T22:46:24.430Z,34.20
2018-09-10T22:48:56.156Z,36.00
2018-09-10T22:51:28.395Z,36.60
2018-09-10T22:54:00.074Z,34.80
2018-09-10T22:56:31.929Z,28.80
2018-09-10T22:59:03.802Z,31.60
2018-09-10T23:01:35.749Z,39.20
2018-09-10T23:04:07.562Z,33.60
2018-09-10T23:06:39.127Z,36.60
2018-09-10T23:09:11.116Z,29.80
2018-09-10T23:11:43.145Z,36.80
2018-09-10T23:14:14.701Z,31.80
2018-09-10T23:16:46.718Z,34.80
2018-09-10T23:19:18.515Z,35.40
2018-09-10T23:21:50.312Z,33.40
2018-09-10T23:24:22.218Z,38.20
2018-09-10T23:26:54.380Z,34.20
2018-09-10T23:29:26.253Z,41.20
2018-09-10T23:31:58.205Z,34.20
2018-09-10T23:34:30.045Z,33.20
2018-09-10T23:37:01.991Z,40.20
2018-09-10T23:39:33.769Z,31.60
2018-09-10T23:42:05.620Z,36.80
2018-09-10T23:44:37.631Z,32.60
2018-09-10T23:47:09.526Z,38.20
2018-09-10T23:49:41.244Z,33.00
2018-09-10T23:52:14.240Z,37.00
2018-09-10T23:54:45.868Z,38.60
2018-09-10T23:57:17.720Z,35.20
2018-09-10T23:59:49.437Z,37.60
